Oquossoc, ME (04964)

11:24 PM EDT on July 25, 2014 (GMT -0400)
Berlin Municipal (KBML) Elev 1158 ft | 44.58 °N, 71.18 °W | Change Station

Current weather conditions updated 32 minutes ago

Clear
Clear
54 °F
Feels Like 54 °F
N
0
Wind Variable Wind from North

Tomorrow is forecast to be nearly the same temperature as today.

Today
High -- | Low -- °F
--% Chance of Precip.
Yesterday
High -- | Low -- °F
Precip. -- in
5:20 AM 8:17 PM
Waning Crescent, 1% visible
Pressure 29.96 in
Visibility 5.0 miles
Clouds Clear
Dew Point 53 °F
Humidity 97%
Rainfall 0.00 in
Snow Depth Not available.
UV 0 out of 12
Pollen 5.40 out of 12
Ozone Good
Flu Activity Not available.
METAR KBML 260252Z AUTO 00000KT 5SM BR CLR 12/12 A2996 RMK AO2 SLP145 T01220117 51008

More Conditions Fewer Conditions

Pressure 29.96 in
Visibility 5.0 miles
Clouds Clear
Dew Point 53 °F
Humidity 97%
Rainfall 0.00 in
Snow Depth Not available.
UV 0 out of 12
Pollen 5.40 out of 12
Ozone Good
Flu Activity Not available.
METAR KBML 260252Z AUTO 00000KT 5SM BR CLR 12/12 A2996 RMK AO2 SLP145 T01220117 51008

More Conditions Fewer Conditions

10-Day Weather Forecast

Almanac

Astronomy

Jul. 25, 2014 Rise Set
Actual Time 5:20 AM EDT 8:17 PM EDT
Civil Twilight 4:46 AM EDT 8:52 PM EDT
Nautical Twilight 4:01 AM EDT 9:36 PM EDT
Astronomical Twilight 3:09 AM EDT 10:28 PM EDT
Moon 4:19 AM EDT (7/25) 7:10 PM EDT (7/25)
Length of Visible Light 16h 06m
Length of Day
14h 57m
Tomorrow will be 2m 9s shorter.
Waning Crescent, 1% of the Moon is Illuminated
Today
Waning Crescent
Jul 26
New
Aug 3
First Quarter
Aug 10
Full
Aug 17
Last Quarter

Today's Extremes

State Highs State Lows

Community

WunderPhotos

Upload Photos

1,737,499 photos uploaded!

Nearby

Air Quality

  Air Quality AQ Index Pollutant
Yesterday Good
OZONE
Current Good
OZONE
Friday Good
OZONE
Friday Good
PM2.5
Saturday Good
OZONE
Saturday Good
PM2.5
Sunday Good
OZONE
Sunday Good
PM2.5
Monday Good
OZONE
Monday Good
PM2.5
Tuesday Good
OZONE
Tuesday Good
PM2.5

Snow Depth

Station Depth Elevation
No new snow has been reported.

Earthquake Activity

City Distance Mag. Time & Date
No recent earthquake activity has been reported nearby.
Minimum magnitude displayed is 2.5.

Coastal Water Temperatures

Place Temperature
No Stations Reporting

Nearby Weather Stations

Station Location Temp. Dew Point Humidity Wind Precip. Elev Updated Type
HADS OQUOSSOC CLIMATE STATION ME, Oquossoc, ME 59 °F - - North  at  - 0.00 in / hr 1495 ft 9:45 PM EDT MADIS
HADS ANDROSCOGGIN RIVER AT ERROL , Errol, NH 56 °F - - North  at  - 0.00 in / hr 1538 ft 10:15 PM EDT MADIS
HADS SWIFT RIVER NEAR ROXBURY ME, Roxbury, ME 58 °F - - North  at  - 0.00 in / hr 616 ft 10:30 PM EDT MADIS

Show More Stations Show Fewer Stations